Terminal Aerodrome Forecast
Issued by NWS Sioux Falls, SD

Home | Current Version | Previous Version | Text Only | Print | Product List | Glossary Off
Versions: 1 2 3 4 5 6 7 8 9 10 11 12 13 14 15 16 17

000
FTUS43 KFSD 171722
TAFSUX
TAF
KSUX 171722Z 1718/1818 22007KT P6SM OVC021
     FM172100 33006KT P6SM OVC040
     FM180300 35013KT P6SM VCSH OVC035
     FM180900 33016G24KT P6SM -RASN OVC035
     FM181200 33015G23KT P6SM SCT100=

USA.gov is the U.S. government's official web portal to all federal, state and local government web resources and services.